»·PEaware :: OEFBC KBFL-KCMA

OEFBC :: KBFL-KCMA

FLIGHT INFORMATION

Flight Status: Arrived
Operator: Unknown
More flights by this operator :: More flights under this callsign
Pilot: Anonymous 28069 (28069)
Aircraft: Diamond DA-62
(DA62)
More flights by this aircraft type
Origin: KBFL Meadows
United States
Destination: KCMA Camarillo
United States
More flights between these airports :: More routes between these airports
Route: MEADO4 GMN V299 FIM V186 SESPE
File this flight plan on PilotEdge
Remarks:
Altitude:
(Current/Filed)
11,000ft
Speed:
(Current/Filed)
155kts
Departed: 21-Jul-21 07:30 AM
Arrived: 21-Jul-21 08:12 AM
Distance/Time
Traveled:
73nm/0:41
Distance/Time
To Go:
Arrived

Flight Plot

Page will automatically refresh every two minutes.

Flight plan parsing failed; only flown route is shown


Map Options




Map Legend


Flown Route
Filed Route
Departure Airport
Arrival Airport
Navaid (VOR, NDB)
Fix

Horizontal Profiles

Position Reports

Time Latitude Longitude Heading Altitude Ground
Speed
21-Jul-21 07:18 35.435704 -119.052043 180 499ft 0kts
21-Jul-21 07:19 35.435704 -119.052043 180 499ft 0kts
21-Jul-21 07:20 35.435704 -119.052043 180 499ft 0kts
21-Jul-21 07:21 35.435704 -119.052043 180 499ft 0kts
21-Jul-21 07:22 35.435704 -119.052043 180 499ft 0kts
21-Jul-21 07:23 35.435704 -119.052043 180 499ft 0kts
21-Jul-21 07:24 35.435817 -119.053215 265 499ft 5kts
21-Jul-21 07:25 35.433229 -119.053163 134 499ft 19kts
21-Jul-21 07:26 35.429937 -119.049225 135 499ft 15kts
21-Jul-21 07:27 35.426977 -119.045634 135 499ft 9kts
21-Jul-21 07:28 35.425751 -119.045048 231 499ft 0kts
21-Jul-21 07:29 35.432275 -119.054577 316 529ft 97kts
21-Jul-21 07:30 35.443224 -119.085275 250 1503ft 107kts
21-Jul-21 07:31 35.433719 -119.120331 250 2516ft 109kts
21-Jul-21 07:32 35.412314 -119.145204 209 3552ft 110kts
21-Jul-21 07:33 35.385847 -119.164448 208 4591ft 111kts
21-Jul-21 07:34 35.356227 -119.185482 208 5353ft 134kts
21-Jul-21 07:35 35.322383 -119.209493 208 6075ft 145kts
21-Jul-21 07:36 35.286828 -119.234680 208 6779ft 150kts
21-Jul-21 07:37 35.250268 -119.260254 198 7476ft 152kts
21-Jul-21 07:38 35.217541 -119.234210 125 8212ft 149kts
21-Jul-21 07:39 35.192634 -119.192325 123 8719ft 155kts
21-Jul-21 07:40 35.167310 -119.149049 123 9220ft 157kts
21-Jul-21 07:41 35.141590 -119.105141 123 9719ft 159kts
21-Jul-21 07:42 35.115813 -119.061189 123 10215ft 160kts
21-Jul-21 07:43 35.089843 -119.016973 123 10713ft 160kts
21-Jul-21 07:44 35.063637 -118.972363 123 11039ft 167kts
21-Jul-21 07:45 35.027104 -118.938007 159 11069ft 174kts
21-Jul-21 07:46 34.980581 -118.921694 161 11082ft 173kts
21-Jul-21 07:47 34.934477 -118.905718 162 11093ft 171kts
21-Jul-21 07:48 34.888743 -118.889968 163 11106ft 171kts
21-Jul-21 07:49 34.842876 -118.874264 163 11117ft 171kts
21-Jul-21 07:50 34.796448 -118.862146 178 11122ft 171kts
21-Jul-21 07:51 34.748836 -118.863550 180 11123ft 172kts
21-Jul-21 07:52 34.701239 -118.865545 181 11079ft 174kts
21-Jul-21 07:53 34.652641 -118.867810 182 11012ft 174kts
21-Jul-21 07:54 34.604513 -118.870074 181 10969ft 173kts
21-Jul-21 07:55 34.556689 -118.872203 181 10929ft 172kts
21-Jul-21 07:56 34.512152 -118.874183 181 10925ft 171kts
21-Jul-21 07:57 34.466119 -118.876234 181 10925ft 170kts
21-Jul-21 07:58 34.419963 -118.878295 181 10900ft 172kts
21-Jul-21 07:59 34.371933 -118.880316 178 10317ft 180kts
21-Jul-21 08:00 34.343759 -118.835028 116 9222ft 189kts
21-Jul-21 08:01 34.312804 -118.787970 164 7373ft 181kts
21-Jul-21 08:02 34.267407 -118.790581 182 6498ft 145kts
21-Jul-21 08:03 34.229485 -118.796026 182 6059ft 131kts
21-Jul-21 08:04 34.211505 -118.834292 268 4680ft 165kts
21-Jul-21 08:05 34.212027 -118.888723 268 3327ft 148kts
21-Jul-21 08:06 34.212205 -118.929751 270 2651ft 111kts
21-Jul-21 08:07 34.212573 -118.966498 270 2029ft 108kts
21-Jul-21 08:08 34.212916 -119.002511 270 1437ft 106kts
21-Jul-21 08:09 34.213242 -119.037859 270 864ft 104kts
21-Jul-21 08:10 34.213482 -119.071349 271 348ft 96kts
21-Jul-21 08:11 34.212856 -119.095631 199 77ft 30kts
21-Jul-21 08:12 34.211021 -119.092257 92 77ft 10kts
21-Jul-21 08:13 34.210459 -119.090071 96 78ft 1kts
21-Jul-21 08:14 34.210455 -119.090029 97 78ft 0kts
21-Jul-21 08:15 34.210455 -119.090029 97 78ft 0kts
21-Jul-21 08:16 34.210455 -119.090029 97 78ft 0kts
21-Jul-21 08:17 34.210455 -119.090029 97 78ft 0kts
21-Jul-21 08:18 34.210455 -119.090029 97 78ft 0kts
21-Jul-21 08:19 34.210455 -119.090029 97 78ft 0kts
21-Jul-21 08:20 34.210455 -119.090029 97 78ft 0kts
21-Jul-21 08:21 34.210455 -119.090029 97 78ft 0kts
21-Jul-21 08:22 34.210455 -119.090029 97 78ft 0kts
21-Jul-21 08:23 34.210455 -119.090029 97 78ft 0kts
21-Jul-21 08:24 34.210455 -119.090029 97 78ft 0kts
21-Jul-21 08:25 34.210455 -119.090029 97 78ft 0kts

Navigation Log

Ident Type
Flight plan parsing failed, navigation log unavailable